createdAt,value
2023-02-11T00:01:11.713Z,99263.52
2023-02-11T00:03:42.843Z,99261.16
2023-02-11T00:06:14.732Z,99255.73
2023-02-11T00:08:46.068Z,99256.60
2023-02-11T00:11:20.236Z,99256.83
2023-02-11T00:13:51.734Z,99261.73
2023-02-11T00:16:23.456Z,99263.89
2023-02-11T00:18:54.426Z,99265.02
2023-02-11T00:21:26.862Z,99262.23
2023-02-11T00:23:59.956Z,99261.52
2023-02-11T00:26:33.931Z,99262.48
2023-02-11T00:29:06.167Z,99253.31
2023-02-11T00:31:37.252Z,99246.31
2023-02-11T00:34:08.486Z,99247.31
2023-02-11T00:36:39.376Z,99245.63
2023-02-11T00:39:11.130Z,99247.93
2023-02-11T00:41:42.060Z,99249.89
2023-02-11T00:44:13.048Z,99248.34
2023-02-11T00:46:44.302Z,99243.13
2023-02-11T00:49:15.645Z,99235.36
2023-02-11T00:51:46.963Z,99231.90
2023-02-11T00:54:17.918Z,99227.81
2023-02-11T00:56:49.047Z,99231.64
2023-02-11T00:59:20.051Z,99230.95
2023-02-11T01:01:51.243Z,99227.91
2023-02-11T01:04:22.452Z,99219.62
2023-02-11T01:06:53.717Z,99211.94
2023-02-11T01:09:24.673Z,99203.34
2023-02-11T01:11:55.645Z,99195.50
2023-02-11T01:14:26.730Z,99192.33
2023-02-11T01:16:57.724Z,99192.71
2023-02-11T01:19:28.672Z,99193.13
2023-02-11T01:22:00.177Z,99187.58
2023-02-11T01:24:31.519Z,99185.90
2023-02-11T01:27:02.644Z,99187.90
2023-02-11T01:29:33.968Z,99178.48
2023-02-11T01:32:05.387Z,99179.52
2023-02-11T01:34:36.694Z,99179.99
2023-02-11T01:37:07.930Z,99178.89
2023-02-11T01:39:38.898Z,99186.86
2023-02-11T01:42:12.816Z,99187.75
2023-02-11T01:44:44.132Z,99186.42
2023-02-11T01:47:15.223Z,99177.55
2023-02-11T01:49:49.465Z,99169.60
2023-02-11T01:52:24.759Z,99174.02
2023-02-11T01:55:17.969Z,99172.02
2023-02-11T01:57:53.996Z,99167.90
2023-02-11T02:00:27.527Z,99164.50
2023-02-11T02:03:04.259Z,99158.03
2023-02-11T02:05:40.703Z,99147.90
2023-02-11T02:08:18.110Z,99146.52
2023-02-11T02:10:56.593Z,99148.63
2023-02-11T02:13:28.745Z,99154.98
2023-02-11T02:16:02.580Z,99152.44
2023-02-11T02:18:48.791Z,99149.00
2023-02-11T02:21:45.345Z,99140.45
2023-02-11T02:24:39.360Z,99135.61
2023-02-11T02:27:31.002Z,99134.06
2023-02-11T02:30:33.386Z,99127.17
2023-02-11T02:33:28.967Z,99125.74
2023-02-11T02:36:10.227Z,99117.77
2023-02-11T02:38:46.245Z,99109.37
2023-02-11T02:41:20.501Z,99100.86
2023-02-11T02:43:53.064Z,99104.81
2023-02-11T02:46:26.718Z,99111.92
2023-02-11T02:48:59.211Z,99117.29
2023-02-11T02:51:54.035Z,99133.52
2023-02-11T02:54:54.324Z,99146.98
2023-02-11T02:57:34.255Z,99131.45
2023-02-11T03:00:26.418Z,99123.44
2023-02-11T03:03:16.909Z,99117.05
2023-02-11T03:05:56.499Z,99109.81
2023-02-11T03:08:33.673Z,99108.98
2023-02-11T03:11:06.923Z,99105.77
2023-02-11T03:13:40.780Z,99093.02
2023-02-11T03:16:16.412Z,99079.22
2023-02-11T03:18:51.665Z,99072.32
2023-02-11T03:21:23.748Z,99065.49
2023-02-11T03:23:57.791Z,99064.04
2023-02-11T03:26:34.099Z,99065.52
2023-02-11T03:29:11.126Z,99071.91
2023-02-11T03:31:48.585Z,99069.86
2023-02-11T03:34:26.513Z,99068.88
2023-02-11T03:37:01.654Z,99058.86
2023-02-11T03:39:38.916Z,99046.77
2023-02-11T03:42:12.426Z,99039.58
2023-02-11T03:44:49.942Z,99037.90
2023-02-11T03:47:25.948Z,99033.36
2023-02-11T03:50:00.698Z,99031.22
2023-02-11T03:52:33.526Z,99036.30
2023-02-11T03:55:09.150Z,99035.52
2023-02-11T03:57:40.396Z,99034.07
2023-02-11T04:00:13.657Z,99029.15
2023-02-11T04:02:45.146Z,99016.86
2023-02-11T04:05:17.896Z,99010.45
2023-02-11T04:07:48.767Z,99005.52
2023-02-11T04:10:20.450Z,99006.94
2023-02-11T04:12:51.365Z,99006.16
2023-02-11T04:15:22.888Z,99008.35
2023-02-11T04:17:54.406Z,99002.92
2023-02-11T04:20:25.525Z,98993.12
2023-02-11T04:22:56.843Z,98991.38
2023-02-11T04:25:27.996Z,98989.10
2023-02-11T04:27:59.001Z,98992.70
2023-02-11T04:30:30.116Z,98991.73
2023-02-11T04:33:02.011Z,98980.35
2023-02-11T04:35:33.398Z,98969.63
2023-02-11T04:38:04.552Z,98957.51
2023-02-11T04:40:36.050Z,98958.31
2023-02-11T04:43:07.236Z,98962.20
2023-02-11T04:45:38.582Z,98963.48
2023-02-11T04:48:09.942Z,98962.09
2023-02-11T04:50:41.095Z,98958.64
2023-02-11T04:53:12.267Z,98959.70
2023-02-11T04:55:43.265Z,98968.71
2023-02-11T04:58:14.373Z,98970.41
2023-02-11T05:00:45.379Z,98969.02
2023-02-11T05:03:17.268Z,98971.20
2023-02-11T05:05:48.765Z,98969.34
2023-02-11T05:08:19.807Z,98961.66
2023-02-11T05:10:51.003Z,98946.95
2023-02-11T05:13:22.017Z,98947.90
2023-02-11T05:15:53.267Z,98952.71
2023-02-11T05:18:24.692Z,98948.18
2023-02-11T05:20:56.074Z,98957.03
2023-02-11T05:23:27.025Z,98947.96
2023-02-11T05:25:58.065Z,98948.31
2023-02-11T05:28:29.570Z,98948.67
2023-02-11T05:30:59.226Z,98948.16
2023-02-11T05:33:30.710Z,98950.36
2023-02-11T05:36:04.210Z,98951.08
2023-02-11T05:38:35.381Z,98956.05
2023-02-11T05:41:07.891Z,98957.47
2023-02-11T05:43:38.933Z,98957.50
2023-02-11T05:46:09.986Z,98953.25
2023-02-11T05:48:40.995Z,98949.66
2023-02-11T05:51:12.115Z,98954.38
2023-02-11T05:53:43.213Z,98965.85
2023-02-11T05:56:14.677Z,98971.73
2023-02-11T05:58:45.571Z,98966.44
2023-02-11T06:01:16.694Z,98962.35
2023-02-11T06:03:50.257Z,98948.94
2023-02-11T06:06:21.860Z,98947.41
2023-02-11T06:08:52.830Z,98949.86
2023-02-11T06:11:23.874Z,98955.28
2023-02-11T06:13:54.946Z,98955.30
2023-02-11T06:16:26.263Z,98950.55
2023-02-11T06:18:57.652Z,98950.06
2023-02-11T06:21:42.837Z,98949.13
2023-02-11T06:24:17.421Z,98952.27
2023-02-11T06:26:50.546Z,98952.66
2023-02-11T06:29:21.438Z,98949.23
2023-02-11T06:31:52.783Z,98949.93
2023-02-11T06:34:24.068Z,98952.01
2023-02-11T06:36:54.984Z,98953.96
2023-02-11T06:39:26.263Z,98951.59
2023-02-11T06:41:57.306Z,98950.64
2023-02-11T06:44:28.346Z,98947.09
2023-02-11T06:46:59.389Z,98942.92
2023-02-11T06:49:30.361Z,98943.71
2023-02-11T06:52:01.386Z,98946.18
2023-02-11T06:54:32.478Z,98944.27
2023-02-11T06:57:03.598Z,98939.36
2023-02-11T06:59:34.584Z,98940.52
2023-02-11T07:02:05.752Z,98938.14
2023-02-11T07:04:36.830Z,98940.26
2023-02-11T07:07:08.090Z,98944.43
2023-02-11T07:09:39.114Z,98948.33
2023-02-11T07:12:11.917Z,98942.11
2023-02-11T07:14:43.338Z,98947.88
2023-02-11T07:17:14.366Z,98945.80
2023-02-11T07:19:45.420Z,98943.33
2023-02-11T07:22:16.572Z,98941.17
2023-02-11T07:24:47.640Z,98938.37
2023-02-11T07:27:19.136Z,98939.87
2023-02-11T07:29:48.803Z,98935.57
2023-02-11T07:32:19.804Z,98937.61
2023-02-11T07:34:50.973Z,98934.20
2023-02-11T07:37:22.270Z,98934.11
2023-02-11T07:39:53.364Z,98934.86
2023-02-11T07:42:24.642Z,98934.87
2023-02-11T07:44:56.010Z,98938.88
2023-02-11T07:47:27.122Z,98939.65
2023-02-11T07:49:58.117Z,98940.09
2023-02-11T07:52:32.133Z,98938.73
2023-02-11T07:55:04.892Z,98935.17
2023-02-11T07:57:35.973Z,98931.55
2023-02-11T08:00:08.482Z,98932.52
2023-02-11T08:02:39.571Z,98930.62
2023-02-11T08:05:11.164Z,98931.80
2023-02-11T08:07:42.332Z,98932.27
2023-02-11T08:10:13.517Z,98929.13
2023-02-11T08:12:44.774Z,98925.05
2023-02-11T08:15:16.186Z,98926.58
2023-02-11T08:17:47.287Z,98925.33
2023-02-11T08:20:18.576Z,98928.95
2023-02-11T08:22:49.842Z,98925.14
2023-02-11T08:25:20.892Z,98919.65
2023-02-11T08:27:52.044Z,98907.60
2023-02-11T08:30:25.056Z,98907.20
2023-02-11T08:32:57.769Z,98914.75
2023-02-11T08:35:28.950Z,98925.48
2023-02-11T08:38:00.101Z,98930.49
2023-02-11T08:40:31.217Z,98933.95
2023-02-11T08:43:02.655Z,98933.02
2023-02-11T08:45:32.459Z,98923.57
2023-02-11T08:48:03.641Z,98930.64
2023-02-11T08:50:34.986Z,98933.71
2023-02-11T08:53:04.701Z,98937.06
2023-02-11T08:55:35.931Z,98937.76
2023-02-11T08:58:06.984Z,98933.23
2023-02-11T09:00:38.091Z,98936.99
2023-02-11T09:03:09.179Z,98939.61
2023-02-11T09:05:44.170Z,98948.40
2023-02-11T09:08:15.596Z,98946.09
2023-02-11T09:10:46.918Z,98947.64
2023-02-11T09:13:16.974Z,98945.88
2023-02-11T09:15:49.066Z,98936.63
2023-02-11T09:18:21.283Z,98923.20
2023-02-11T09:20:53.118Z,98917.63
2023-02-11T09:23:23.028Z,98913.85
2023-02-11T09:26:09.918Z,98918.90
2023-02-11T09:28:41.161Z,98912.86
2023-02-11T09:31:11.840Z,98909.00
2023-02-11T09:33:48.038Z,98900.30
2023-02-11T09:36:21.711Z,98915.10
2023-02-11T09:38:53.441Z,98923.02
2023-02-11T09:41:39.963Z,98929.65
2023-02-11T09:44:19.647Z,98929.97
2023-02-11T09:46:55.865Z,98933.37
2023-02-11T09:49:33.555Z,98937.56
2023-02-11T09:52:12.142Z,98937.41
2023-02-11T09:54:53.853Z,98935.41
2023-02-11T09:57:29.305Z,98934.84
2023-02-11T10:00:00.729Z,98934.94
2023-02-11T10:02:45.144Z,98932.35
2023-02-11T10:05:27.040Z,98933.73
2023-02-11T10:08:09.744Z,98933.58
2023-02-11T10:10:51.639Z,98920.98
2023-02-11T10:13:49.021Z,98906.23
2023-02-11T10:16:33.486Z,98891.80
2023-02-11T10:19:41.110Z,98876.61
2023-02-11T10:22:19.442Z,98866.16
2023-02-11T10:24:55.492Z,98858.09
2023-02-11T10:27:31.911Z,98859.55
2023-02-11T10:30:07.446Z,98858.55
2023-02-11T10:32:46.298Z,98855.86
2023-02-11T10:35:19.506Z,98858.77
2023-02-11T10:37:50.843Z,98854.20
2023-02-11T10:40:23.879Z,98859.05
2023-02-11T10:42:57.084Z,98860.98
2023-02-11T10:45:33.342Z,98852.15
2023-02-11T10:48:07.264Z,98842.98
2023-02-11T10:50:38.900Z,98848.31
2023-02-11T10:53:20.573Z,98836.81
2023-02-11T10:55:57.427Z,98843.79
2023-02-11T10:58:32.734Z,98862.20
2023-02-11T11:01:10.216Z,98879.65
2023-02-11T11:03:52.551Z,98890.90
2023-02-11T11:06:34.651Z,98886.30
2023-02-11T11:09:06.069Z,98879.54
2023-02-11T11:11:54.685Z,98888.30
2023-02-11T11:14:29.120Z,98889.27
2023-02-11T11:17:00.209Z,98887.71
2023-02-11T11:19:31.350Z,98885.15
2023-02-11T11:22:00.862Z,98882.75
2023-02-11T11:24:41.692Z,98895.30
2023-02-11T11:27:22.207Z,98888.95
2023-02-11T11:29:55.986Z,98886.95
2023-02-11T11:32:30.152Z,98878.33
2023-02-11T11:35:06.029Z,98866.02
2023-02-11T11:37:38.398Z,98862.86
2023-02-11T11:40:12.668Z,98865.66
2023-02-11T11:43:07.766Z,98862.11
2023-02-11T11:45:38.853Z,98867.67
2023-02-11T11:48:14.534Z,98847.91
2023-02-11T11:50:51.310Z,98846.33
2023-02-11T11:53:29.208Z,98848.95
2023-02-11T11:56:05.518Z,98849.48
2023-02-11T11:58:36.973Z,98848.84
2023-02-11T12:01:23.472Z,98846.04
2023-02-11T12:04:17.977Z,98858.42
2023-02-11T12:07:03.545Z,98858.48
2023-02-11T12:09:42.110Z,98857.77
2023-02-11T12:12:32.340Z,98858.86
2023-02-11T12:15:08.382Z,98850.09
2023-02-11T12:17:56.520Z,98854.34
2023-02-11T12:20:38.129Z,98853.20
2023-02-11T12:23:33.012Z,98862.60
2023-02-11T12:26:14.538Z,98863.09
2023-02-11T12:29:00.751Z,98854.98
2023-02-11T12:31:44.140Z,98848.65
2023-02-11T12:34:43.208Z,98841.13
2023-02-11T12:37:26.985Z,98843.93
2023-02-11T12:40:04.628Z,98845.13
2023-02-11T12:43:04.566Z,98848.06
2023-02-11T12:45:47.439Z,98846.02
2023-02-11T12:48:37.685Z,98841.55
2023-02-11T12:51:16.006Z,98830.04
2023-02-11T12:54:05.293Z,98826.35
2023-02-11T12:56:42.858Z,98818.75
2023-02-11T12:59:22.766Z,98805.24
2023-02-11T13:01:55.193Z,98805.23
2023-02-11T13:04:31.739Z,98801.04
2023-02-11T13:07:10.070Z,98799.65
2023-02-11T13:09:45.611Z,98801.27
2023-02-11T13:12:35.526Z,98801.59
2023-02-11T13:15:14.147Z,98800.20
2023-02-11T13:17:53.828Z,98796.95
2023-02-11T13:20:33.901Z,98794.00
2023-02-11T13:23:13.805Z,98789.46
2023-02-11T13:25:51.409Z,98786.69
2023-02-11T13:28:34.869Z,98782.77
2023-02-11T13:31:07.971Z,98785.10
2023-02-11T13:33:43.147Z,98785.77
2023-02-11T13:36:34.161Z,98789.14
2023-02-11T13:39:08.056Z,98793.26
2023-02-11T13:41:42.053Z,98795.94
2023-02-11T13:44:25.651Z,98790.46
2023-02-11T13:47:05.758Z,98785.18
2023-02-11T13:49:40.886Z,98793.81
2023-02-11T13:52:25.907Z,98794.77
2023-02-11T13:55:00.250Z,98794.75
2023-02-11T13:57:37.573Z,98798.30
2023-02-11T14:00:47.368Z,98794.76
2023-02-11T14:03:56.834Z,98785.89
2023-02-11T14:06:49.268Z,98784.71
2023-02-11T14:09:41.335Z,98784.52
2023-02-11T14:12:36.217Z,98785.89
2023-02-11T14:15:27.540Z,98799.95
2023-02-11T14:17:58.518Z,98801.91
2023-02-11T14:20:39.310Z,98796.20
2023-02-11T14:23:22.885Z,98789.17
2023-02-11T14:26:06.288Z,98791.84
2023-02-11T14:28:39.829Z,98796.67
2023-02-11T14:31:14.254Z,98796.35
2023-02-11T14:34:03.892Z,98799.43
2023-02-11T14:36:56.057Z,98794.41
2023-02-11T14:39:40.359Z,98794.61
2023-02-11T14:42:19.954Z,98796.48
2023-02-11T14:44:53.532Z,98799.19
2023-02-11T14:47:29.934Z,98796.45
2023-02-11T14:50:01.268Z,98791.52
2023-02-11T14:52:32.609Z,98792.09
2023-02-11T14:55:17.801Z,98786.34
2023-02-11T14:57:50.934Z,98789.25
2023-02-11T15:00:24.446Z,98784.32
2023-02-11T15:02:57.140Z,98784.21
2023-02-11T15:05:30.187Z,98788.63
2023-02-11T15:08:03.284Z,98790.55
2023-02-11T15:10:37.521Z,98791.46
2023-02-11T15:13:09.156Z,98791.23
2023-02-11T15:15:42.644Z,98784.92
2023-02-11T15:18:22.886Z,98782.95
2023-02-11T15:20:54.202Z,98780.16
2023-02-11T15:23:28.481Z,98786.89
2023-02-11T15:26:03.397Z,98782.84
2023-02-11T15:28:36.014Z,98791.71
2023-02-11T15:31:15.372Z,98787.48
2023-02-11T15:33:46.781Z,98786.30
2023-02-11T15:36:19.258Z,98788.65
2023-02-11T15:39:20.568Z,98787.41
2023-02-11T15:41:51.572Z,98787.02
2023-02-11T15:44:38.722Z,98785.51
2023-02-11T15:47:14.070Z,98789.50
2023-02-11T15:49:48.954Z,98795.21
2023-02-11T15:52:27.800Z,98801.48
2023-02-11T15:55:02.395Z,98797.56
2023-02-11T15:57:36.942Z,98787.26
2023-02-11T16:00:17.495Z,98790.41
2023-02-11T16:02:51.030Z,98787.77
2023-02-11T16:05:36.473Z,98793.50
2023-02-11T16:08:25.419Z,98798.60
2023-02-11T16:11:03.345Z,98805.49
2023-02-11T16:13:44.681Z,98807.55
2023-02-11T16:16:23.053Z,98807.48
2023-02-11T16:19:04.584Z,98803.81
2023-02-11T16:21:45.785Z,98805.20
2023-02-11T16:24:22.647Z,98806.42
2023-02-11T16:26:57.163Z,98812.67
2023-02-11T16:29:30.440Z,98804.39
2023-02-11T16:32:11.341Z,98808.13
2023-02-11T16:34:42.496Z,98806.68
2023-02-11T16:37:13.701Z,98812.48
2023-02-11T16:39:44.878Z,98815.61
2023-02-11T16:42:16.124Z,98811.30
2023-02-11T16:44:45.624Z,98810.66
2023-02-11T16:47:21.643Z,98814.70
2023-02-11T16:49:53.163Z,98816.39
2023-02-11T16:52:25.414Z,98814.58
2023-02-11T16:54:56.530Z,98819.86
2023-02-11T16:57:30.342Z,98825.30
2023-02-11T17:00:01.775Z,98830.64
2023-02-11T17:02:35.829Z,98833.59
2023-02-11T17:05:09.323Z,98846.47
2023-02-11T17:07:40.456Z,98849.19
2023-02-11T17:10:17.508Z,98854.34
2023-02-11T17:12:49.132Z,98863.94
2023-02-11T17:15:20.948Z,98867.30
2023-02-11T17:17:52.195Z,98868.83
2023-02-11T17:20:23.623Z,98874.54
2023-02-11T17:22:53.054Z,98871.55
2023-02-11T17:25:24.699Z,98874.94
2023-02-11T17:27:55.610Z,98882.04
2023-02-11T17:30:26.750Z,98881.84
2023-02-11T17:33:00.274Z,98886.48
2023-02-11T17:35:31.530Z,98886.04
2023-02-11T17:38:01.594Z,98889.42
2023-02-11T17:40:33.125Z,98891.33
2023-02-11T17:43:04.152Z,98895.13
2023-02-11T17:45:36.025Z,98903.37
2023-02-11T17:48:07.461Z,98900.01
2023-02-11T17:50:39.541Z,98897.80
2023-02-11T17:53:10.884Z,98896.83
2023-02-11T17:55:40.592Z,98901.01
2023-02-11T17:58:11.548Z,98899.83
2023-02-11T18:00:43.508Z,98893.62
2023-02-11T18:03:14.739Z,98894.06
2023-02-11T18:05:46.047Z,98894.84
2023-02-11T18:08:17.035Z,98893.61
2023-02-11T18:10:48.280Z,98893.46
2023-02-11T18:13:19.375Z,98891.34
2023-02-11T18:15:51.275Z,98894.23
2023-02-11T18:18:22.558Z,98901.00
2023-02-11T18:21:00.054Z,98897.28
2023-02-11T18:23:29.468Z,98893.95
2023-02-11T18:26:00.518Z,98894.83
2023-02-11T18:28:31.751Z,98900.95
2023-02-11T18:31:03.264Z,98901.68
2023-02-11T18:33:35.068Z,98900.36
2023-02-11T18:36:09.698Z,98908.52
2023-02-11T18:38:40.996Z,98909.60
2023-02-11T18:41:11.953Z,98905.86
2023-02-11T18:43:43.142Z,98909.53
2023-02-11T18:46:16.419Z,98914.13
2023-02-11T18:48:47.738Z,98915.36
2023-02-11T18:51:19.169Z,98913.77
2023-02-11T18:53:50.345Z,98915.77
2023-02-11T18:56:21.025Z,98912.16
2023-02-11T18:58:52.446Z,98915.70
2023-02-11T19:01:26.836Z,98919.20
2023-02-11T19:04:02.810Z,98920.08
2023-02-11T19:06:36.492Z,98925.57
2023-02-11T19:09:09.891Z,98924.09
2023-02-11T19:11:49.022Z,98914.88
2023-02-11T19:14:23.882Z,98916.78
2023-02-11T19:16:57.111Z,98920.85
2023-02-11T19:19:30.223Z,98921.09
2023-02-11T19:22:02.313Z,98924.63
2023-02-11T19:24:34.168Z,98925.79
2023-02-11T19:27:06.766Z,98921.71
2023-02-11T19:29:37.805Z,98920.56
2023-02-11T19:32:09.258Z,98920.88
2023-02-11T19:34:42.189Z,98929.87
2023-02-11T19:37:13.957Z,98936.52
2023-02-11T19:39:46.073Z,98936.73
2023-02-11T19:42:17.585Z,98934.79
2023-02-11T19:44:49.299Z,98937.10
2023-02-11T19:47:26.842Z,98936.23
2023-02-11T19:49:57.912Z,98935.23
2023-02-11T19:52:29.112Z,98927.92
2023-02-11T19:55:00.455Z,98927.48
2023-02-11T19:57:29.951Z,98929.94
2023-02-11T20:00:01.475Z,98934.88
2023-02-11T20:02:32.894Z,98933.81
2023-02-11T20:05:04.087Z,98935.14
2023-02-11T20:07:35.623Z,98931.05
2023-02-11T20:10:09.514Z,98926.26
2023-02-11T20:12:40.520Z,98930.96
2023-02-11T20:15:12.866Z,98941.14
2023-02-11T20:17:44.939Z,98946.01
2023-02-11T20:20:16.403Z,98942.07
2023-02-11T20:22:47.548Z,98943.54
2023-02-11T20:25:19.016Z,98948.07
2023-02-11T20:27:50.318Z,98954.84
2023-02-11T20:30:22.720Z,98958.36
2023-02-11T20:32:53.939Z,98959.20
2023-02-11T20:35:25.131Z,98967.34
2023-02-11T20:37:56.094Z,98965.52
2023-02-11T20:40:27.193Z,98966.27
2023-02-11T20:43:01.752Z,98966.36
2023-02-11T20:45:33.739Z,98966.67
2023-02-11T20:48:04.882Z,98975.15
2023-02-11T20:50:37.883Z,98973.33
2023-02-11T20:53:10.344Z,98971.83
2023-02-11T20:55:42.408Z,98967.58
2023-02-11T20:58:13.687Z,98967.10
2023-02-11T21:00:44.896Z,98968.42
2023-02-11T21:03:16.143Z,98967.75
2023-02-11T21:05:47.468Z,98969.14
2023-02-11T21:08:18.649Z,98981.05
2023-02-11T21:10:50.839Z,98981.13
2023-02-11T21:13:22.368Z,98984.01
2023-02-11T21:15:57.254Z,98989.63
2023-02-11T21:18:28.732Z,98989.12
2023-02-11T21:21:00.435Z,98985.21
2023-02-11T21:23:31.646Z,98997.52
2023-02-11T21:26:01.678Z,99001.52
2023-02-11T21:28:33.029Z,99001.91
2023-02-11T21:31:05.229Z,99007.86
2023-02-11T21:33:36.469Z,99019.59
2023-02-11T21:36:08.806Z,99018.69
2023-02-11T21:38:40.714Z,99013.46
2023-02-11T21:41:10.434Z,99016.96
2023-02-11T21:43:41.514Z,99014.92
2023-02-11T21:46:13.923Z,99008.41
2023-02-11T21:48:45.101Z,99011.27
2023-02-11T21:51:17.687Z,99019.55
2023-02-11T21:53:49.272Z,99019.34
2023-02-11T21:56:20.848Z,99022.34
2023-02-11T21:58:55.792Z,99020.83
2023-02-11T22:01:29.655Z,99028.08
2023-02-11T22:04:01.259Z,99025.55
2023-02-11T22:06:35.378Z,99023.33
2023-02-11T22:09:09.127Z,99027.45
2023-02-11T22:11:40.367Z,99030.27
2023-02-11T22:14:11.443Z,99030.33
2023-02-11T22:16:42.401Z,99031.45
2023-02-11T22:19:13.717Z,99035.59
2023-02-11T22:21:44.988Z,99041.73
2023-02-11T22:24:15.972Z,99040.30
2023-02-11T22:26:47.202Z,99041.49
2023-02-11T22:29:18.245Z,99037.92
2023-02-11T22:31:49.495Z,99039.48
2023-02-11T22:34:20.574Z,99044.23
2023-02-11T22:36:51.584Z,99058.77
2023-02-11T22:39:22.704Z,99066.02
2023-02-11T22:41:54.606Z,99068.98
2023-02-11T22:44:25.771Z,99072.90
2023-02-11T22:46:57.516Z,99069.50
2023-02-11T22:49:29.099Z,99074.21
2023-02-11T22:52:00.731Z,99079.28
2023-02-11T22:54:32.372Z,99079.49
2023-02-11T22:57:03.410Z,99078.92
2023-02-11T22:59:34.485Z,99075.77
2023-02-11T23:02:05.856Z,99079.20
2023-02-11T23:04:36.991Z,99089.23
2023-02-11T23:07:08.023Z,99096.20
2023-02-11T23:09:39.188Z,99085.96
2023-02-11T23:12:10.434Z,99076.35
2023-02-11T23:14:42.704Z,99076.89
2023-02-11T23:17:14.018Z,99075.27
2023-02-11T23:19:45.656Z,99076.73
2023-02-11T23:22:16.732Z,99075.84
2023-02-11T23:24:47.882Z,99072.02
2023-02-11T23:27:18.780Z,99064.42
2023-02-11T23:29:49.913Z,99067.23
2023-02-11T23:32:21.023Z,99066.96
2023-02-11T23:34:52.710Z,99064.80
2023-02-11T23:37:23.751Z,99063.60
2023-02-11T23:39:54.855Z,99072.64
2023-02-11T23:42:26.118Z,99072.23
2023-02-11T23:44:57.159Z,99074.23
2023-02-11T23:47:26.923Z,99073.06
2023-02-11T23:49:59.618Z,99084.14
2023-02-11T23:52:30.782Z,99079.79
2023-02-11T23:55:01.962Z,99078.45
2023-02-11T23:57:34.645Z,99081.98
